createdAt,value
2019-04-20T00:01:32.300Z,95764.20
2019-04-20T00:04:03.110Z,95766.73
2019-04-20T00:06:43.380Z,95772.94
2019-04-20T00:09:15.977Z,95769.78
2019-04-20T00:11:53.293Z,95769.27
2019-04-20T00:14:23.742Z,95765.16
2019-04-20T00:16:50.582Z,95765.97
2019-04-20T00:19:30.228Z,95762.05
2019-04-20T00:22:04.582Z,95766.89
2019-04-20T00:24:38.851Z,95769.88
2019-04-20T00:27:32.753Z,95774.20
2019-04-20T00:29:59.921Z,95779.05
2019-04-20T00:32:34.153Z,95768.11
2019-04-20T00:34:53.955Z,95775.03
2019-04-20T00:37:26.132Z,95773.09
2019-04-20T00:39:57.893Z,95768.70
2019-04-20T00:42:37.984Z,95772.22
2019-04-20T00:45:11.998Z,95767.00
2019-04-20T00:47:50.147Z,95778.03
2019-04-20T00:50:28.277Z,95779.15
2019-04-20T00:52:59.338Z,95781.69
2019-04-20T00:55:20.967Z,95779.92
2019-04-20T00:57:59.803Z,95776.55
2019-04-20T01:00:40.557Z,95775.39
2019-04-20T01:03:15.746Z,95775.43
2019-04-20T01:06:04.918Z,95771.05
2019-04-20T01:08:34.574Z,95766.18
2019-04-20T01:11:06.546Z,95762.05
2019-04-20T01:13:46.091Z,95754.87
2019-04-20T01:16:25.183Z,95758.02
2019-04-20T01:18:47.229Z,95749.99
2019-04-20T01:21:23.603Z,95752.47
2019-04-20T01:23:56.552Z,95743.11
2019-04-20T01:26:24.908Z,95739.05
2019-04-20T01:29:09.058Z,95737.22
2019-04-20T01:31:38.430Z,95739.96
2019-04-20T01:34:16.301Z,95738.37
2019-04-20T01:36:55.607Z,95738.61
2019-04-20T01:39:22.136Z,95744.50
2019-04-20T01:41:45.587Z,95738.40
2019-04-20T01:44:24.574Z,95749.58
2019-04-20T01:46:56.415Z,95741.47
2019-04-20T01:49:28.244Z,95743.51
2019-04-20T01:52:09.971Z,95750.95
2019-04-20T01:54:52.553Z,95746.68
2019-04-20T01:57:33.033Z,95745.03
2019-04-20T02:00:14.346Z,95747.30
2019-04-20T02:03:05.215Z,95740.78
2019-04-20T02:05:38.302Z,95744.44
2019-04-20T02:08:12.784Z,95748.58
2019-04-20T02:10:47.481Z,95745.73
2019-04-20T02:13:15.344Z,95738.32
2019-04-20T02:15:51.202Z,95743.02
2019-04-20T02:18:33.679Z,95744.04
2019-04-20T02:21:12.192Z,95747.89
2019-04-20T02:23:35.746Z,95737.55
2019-04-20T02:25:58.733Z,95747.39
2019-04-20T02:28:55.397Z,95744.75
2019-04-20T02:31:40.941Z,95743.86
2019-04-20T02:34:33.513Z,95746.48
2019-04-20T02:42:20.315Z,95735.52
2019-04-20T02:44:49.801Z,95733.09
2019-04-20T02:47:25.761Z,95732.87
2019-04-20T02:49:59.875Z,95744.98
2019-04-20T02:55:04.165Z,95740.31
2019-04-20T03:02:23.794Z,95734.77
2019-04-20T03:04:48.006Z,95731.59
2019-04-20T03:07:28.002Z,95738.57
2019-04-20T03:10:04.055Z,95727.01
2019-04-20T03:12:47.494Z,95734.50
2019-04-20T03:15:09.577Z,95730.73
2019-04-20T03:17:51.172Z,95734.58
2019-04-20T03:20:23.306Z,95734.69
2019-04-20T03:25:53.494Z,95738.29
2019-04-20T03:28:18.237Z,95736.78
2019-04-20T03:33:51.375Z,95733.00
2019-04-20T03:36:20.033Z,95732.26
2019-04-20T03:38:38.332Z,95737.45
2019-04-20T03:41:05.200Z,95736.73
2019-04-20T03:43:26.361Z,95734.59
2019-04-20T03:46:05.794Z,95733.39
2019-04-20T03:48:46.511Z,95737.97
2019-04-20T03:51:28.923Z,95739.17
2019-04-20T03:54:22.229Z,95735.91
2019-04-20T03:57:21.963Z,95737.55
2019-04-20T04:00:06.235Z,95742.00
2019-04-20T04:03:12.966Z,95737.55
2019-04-20T04:05:35.486Z,95739.80
2019-04-20T04:08:06.219Z,95742.42
2019-04-20T04:10:48.547Z,95741.94
2019-04-20T04:13:14.740Z,95746.82
2019-04-20T04:15:52.292Z,95750.38
2019-04-20T04:18:27.826Z,95754.53
2019-04-20T04:21:02.922Z,95756.40
2019-04-20T04:23:45.477Z,95759.31
2019-04-20T04:26:17.310Z,95756.98
2019-04-20T04:28:51.967Z,95761.80
2019-04-20T04:31:31.112Z,95761.98
2019-04-20T04:33:58.108Z,95765.83
2019-04-20T04:36:29.337Z,95763.31
2019-04-20T04:39:11.388Z,95758.55
2019-04-20T04:41:36.342Z,95765.29
2019-04-20T04:44:08.690Z,95768.55
2019-04-20T04:46:25.090Z,95767.66
2019-04-20T04:49:05.350Z,95766.95
2019-04-20T04:51:42.445Z,95762.29
2019-04-20T04:54:13.750Z,95759.17
2019-04-20T04:56:37.958Z,95758.48
2019-04-20T04:59:10.692Z,95757.66
2019-04-20T05:01:46.960Z,95755.14
2019-04-20T05:04:43.307Z,95762.53
2019-04-20T05:07:05.175Z,95767.20
2019-04-20T05:09:23.889Z,95755.09
2019-04-20T05:11:59.951Z,95766.45
2019-04-20T05:14:41.856Z,95757.69
2019-04-20T05:17:15.506Z,95761.72
2019-04-20T05:19:53.167Z,95762.80
2019-04-20T05:22:31.606Z,95765.05
2019-04-20T05:25:12.970Z,95767.70
2019-04-20T05:27:53.493Z,95771.72
2019-04-20T05:30:05.775Z,95766.95
2019-04-20T05:32:48.249Z,95765.14
2019-04-20T05:35:33.665Z,95764.86
2019-04-20T05:38:15.334Z,95768.38
2019-04-20T05:40:40.204Z,95772.25
2019-04-20T05:43:22.201Z,95776.98
2019-04-20T05:45:50.515Z,95773.11
2019-04-20T05:48:26.125Z,95776.92
2019-04-20T05:51:04.120Z,95788.78
2019-04-20T05:53:38.767Z,95791.88
2019-04-20T05:56:12.171Z,95785.59
2019-04-20T05:58:45.272Z,95794.95
2019-04-20T06:01:22.920Z,95793.83
2019-04-20T06:03:48.832Z,95795.01
2019-04-20T06:06:27.831Z,95800.09
2019-04-20T06:09:05.542Z,95796.31
2019-04-20T06:11:37.050Z,95803.16
2019-04-20T06:14:13.301Z,95803.16
2019-04-20T06:17:16.105Z,95802.70
2019-04-20T06:19:48.913Z,95804.61
2019-04-20T06:22:31.419Z,95813.16
2019-04-20T06:25:50.242Z,95804.58
2019-04-20T06:27:58.863Z,95812.31
2019-04-20T06:30:28.064Z,95814.60
2019-04-20T06:34:02.569Z,95812.66
2019-04-20T06:36:26.169Z,95823.33
2019-04-20T06:38:58.848Z,95825.80
2019-04-20T06:41:37.928Z,95824.05
2019-04-20T06:43:53.963Z,95820.96
2019-04-20T06:46:29.240Z,95829.41
2019-04-20T06:49:05.670Z,95827.09
2019-04-20T06:51:34.867Z,95836.06
2019-04-20T06:54:17.332Z,95840.37
2019-04-20T06:57:00.290Z,95836.80
2019-04-20T06:59:38.714Z,95841.44
2019-04-20T07:02:20.215Z,95843.03
2019-04-20T07:10:06.470Z,95848.53
2019-04-20T07:12:18.636Z,95846.80
2019-04-20T07:14:42.708Z,95850.52
2019-04-20T07:17:45.593Z,95854.86
2019-04-20T07:20:16.025Z,95845.70
2019-04-20T07:23:09.517Z,95840.63
2019-04-20T07:25:31.073Z,95846.79
2019-04-20T07:28:06.921Z,95848.34
2019-04-20T07:30:42.363Z,95841.66
2019-04-20T07:33:20.023Z,95850.88
2019-04-20T07:35:40.450Z,95847.79
2019-04-20T07:40:50.981Z,95845.78
2019-04-20T07:43:28.365Z,95842.31
2019-04-20T07:46:03.010Z,95853.91
2019-04-20T07:48:29.279Z,95849.19
2019-04-20T07:50:58.240Z,95846.23
2019-04-20T07:53:34.382Z,95850.97
2019-04-20T07:56:13.145Z,95858.91
2019-04-20T07:58:34.888Z,95860.19
2019-04-20T08:02:05.946Z,95855.98
2019-04-20T08:04:32.324Z,95854.87
2019-04-20T08:06:54.736Z,95858.70
2019-04-20T08:09:32.849Z,95865.08
2019-04-20T08:12:26.889Z,95864.55
2019-04-20T08:14:57.611Z,95864.67
2019-04-20T08:17:30.901Z,95865.92
2019-04-20T08:20:00.133Z,95869.78
2019-04-20T08:22:38.880Z,95864.27
2019-04-20T08:24:55.204Z,95868.42
2019-04-20T08:27:23.469Z,95867.35
2019-04-20T08:30:21.674Z,95868.20
2019-04-20T08:33:04.241Z,95870.87
2019-04-20T08:35:49.357Z,95869.56
2019-04-20T08:38:55.969Z,95871.48
2019-04-20T08:40:47.913Z,95874.45
2019-04-20T08:43:37.890Z,95864.42
2019-04-20T08:46:03.431Z,95866.15
2019-04-20T08:48:36.954Z,95871.33
2019-04-20T08:51:04.789Z,95874.86
2019-04-20T08:53:36.463Z,95872.72
2019-04-20T08:56:03.338Z,95870.91
2019-04-20T08:58:25.475Z,95880.45
2019-04-20T09:01:01.621Z,95883.63
2019-04-20T09:03:42.224Z,95884.48
2019-04-20T09:06:21.558Z,95879.86
2019-04-20T09:08:46.524Z,95875.77
2019-04-20T09:11:24.985Z,95875.34
2019-04-20T09:13:49.623Z,95881.10
2019-04-20T09:16:19.894Z,95876.63
2019-04-20T09:18:57.887Z,95866.16
2019-04-20T09:21:33.085Z,95874.62
2019-04-20T09:24:22.803Z,95872.16
2019-04-20T09:26:47.955Z,95869.19
2019-04-20T09:29:18.485Z,95877.97
2019-04-20T09:31:56.147Z,95880.58
2019-04-20T09:34:42.416Z,95881.83
2019-04-20T09:37:29.667Z,95880.81
2019-04-20T09:40:21.873Z,95870.50
2019-04-20T09:42:50.201Z,95867.59
2019-04-20T09:45:45.987Z,95871.36
2019-04-20T09:48:21.206Z,95876.64
2019-04-20T09:51:09.185Z,95870.87
2019-04-20T09:53:33.488Z,95885.14
2019-04-20T09:56:13.006Z,95875.55
2019-04-20T09:58:50.988Z,95866.45
2019-04-20T10:01:15.634Z,95866.81
2019-04-20T10:03:36.678Z,95866.73
2019-04-20T10:06:09.732Z,95877.51
2019-04-20T10:08:47.914Z,95879.33
2019-04-20T10:11:13.838Z,95866.73
2019-04-20T10:13:45.991Z,95874.50
2019-04-20T10:16:17.871Z,95885.44
2019-04-20T10:18:53.265Z,95874.63
2019-04-20T10:21:23.615Z,95877.35
2019-04-20T10:23:56.378Z,95887.13
2019-04-20T10:26:28.325Z,95879.88
2019-04-20T10:28:59.893Z,95886.15
2019-04-20T10:31:37.653Z,95881.55
2019-04-20T10:34:05.218Z,95877.45
2019-04-20T10:36:55.940Z,95886.54
2019-04-20T10:39:28.774Z,95888.30
2019-04-20T10:42:04.066Z,95891.75
2019-04-20T10:44:35.050Z,95890.16
2019-04-20T10:47:07.361Z,95890.52
2019-04-20T10:49:38.995Z,95883.28
2019-04-20T10:52:11.832Z,95886.53
2019-04-20T10:54:44.742Z,95892.03
2019-04-20T10:57:17.415Z,95897.59
2019-04-20T10:59:49.823Z,95895.38
2019-04-20T11:02:21.678Z,95892.11
2019-04-20T11:04:54.822Z,95896.93
2019-04-20T11:07:26.661Z,95891.04
2019-04-20T11:10:07.885Z,95899.53
2019-04-20T11:12:32.608Z,95899.37
2019-04-20T11:15:04.528Z,95897.06
2019-04-20T11:17:37.393Z,95889.62
2019-04-20T11:20:09.674Z,95896.02
2019-04-20T11:22:42.206Z,95896.86
2019-04-20T11:25:16.474Z,95903.95
2019-04-20T11:27:48.339Z,95909.45
2019-04-20T11:30:22.410Z,95913.13
2019-04-20T11:32:53.968Z,95912.08
2019-04-20T11:35:33.854Z,95916.02
2019-04-20T11:37:59.168Z,95915.33
2019-04-20T11:40:30.978Z,95915.65
2019-04-20T11:43:03.738Z,95918.63
2019-04-20T11:45:36.387Z,95906.23
2019-04-20T11:48:09.563Z,95903.59
2019-04-20T11:50:41.429Z,95906.19
2019-04-20T11:53:13.348Z,95913.13
2019-04-20T11:55:46.535Z,95912.78
2019-04-20T11:58:19.600Z,95908.91
2019-04-20T12:01:01.202Z,95918.02
2019-04-20T12:03:32.893Z,95905.24
2019-04-20T12:06:04.695Z,95908.63
2019-04-20T12:08:37.657Z,95901.56
2019-04-20T12:11:23.120Z,95903.89
2019-04-20T12:13:42.716Z,95902.28
2019-04-20T12:16:14.679Z,95903.81
2019-04-20T12:18:46.473Z,95902.29
2019-04-20T12:21:18.951Z,95908.25
2019-04-20T12:23:51.940Z,95906.47
2019-04-20T12:26:24.813Z,95902.49
2019-04-20T12:28:57.960Z,95902.49
2019-04-20T12:31:29.800Z,95903.59
2019-04-20T12:34:02.293Z,95910.92
2019-04-20T12:36:35.298Z,95901.55
2019-04-20T12:39:10.881Z,95906.44
2019-04-20T12:41:49.854Z,95901.53
2019-04-20T12:44:17.565Z,95908.86
2019-04-20T12:46:49.895Z,95905.08
2019-04-20T12:49:21.588Z,95898.30
2019-04-20T12:51:59.304Z,95912.61
2019-04-20T12:54:26.970Z,95912.23
2019-04-20T12:56:58.899Z,95918.03
2019-04-20T12:59:31.660Z,95908.64
2019-04-20T13:02:03.439Z,95910.89
2019-04-20T13:04:37.356Z,95911.98
2019-04-20T13:07:10.087Z,95909.16
2019-04-20T13:09:50.875Z,95899.28
2019-04-20T13:12:52.283Z,95894.97
2019-04-20T13:15:50.139Z,95889.22
2019-04-20T13:18:27.419Z,95877.19
2019-04-20T13:21:00.396Z,95876.14
2019-04-20T13:23:33.138Z,95880.00
2019-04-20T13:26:07.238Z,95874.92
2019-04-20T13:28:39.052Z,95877.86
2019-04-20T13:31:11.630Z,95868.18
2019-04-20T13:33:45.224Z,95869.16
2019-04-20T13:36:17.429Z,95878.03
2019-04-20T13:38:50.047Z,95868.56
2019-04-20T13:41:22.154Z,95866.30
2019-04-20T13:43:55.803Z,95859.86
2019-04-20T13:46:27.273Z,95863.31
2019-04-20T13:48:59.065Z,95861.93
2019-04-20T13:51:30.974Z,95864.05
2019-04-20T13:54:07.362Z,95857.09
2019-04-20T13:56:37.626Z,95859.83
2019-04-20T13:59:27.874Z,95851.69
2019-04-20T14:02:22.707Z,95849.22
2019-04-20T14:04:58.971Z,95859.19
2019-04-20T14:07:33.440Z,95849.50
2019-04-20T14:10:06.055Z,95852.20
2019-04-20T14:12:45.132Z,95855.37
2019-04-20T14:15:11.524Z,95859.03
2019-04-20T14:17:43.429Z,95845.81
2019-04-20T14:20:18.458Z,95850.27
2019-04-20T14:22:49.213Z,95854.25
2019-04-20T14:25:21.098Z,95855.60
2019-04-20T14:27:52.973Z,95859.80
2019-04-20T14:30:24.840Z,95857.66
2019-04-20T14:32:56.853Z,95853.84
2019-04-20T14:35:29.195Z,95865.28
2019-04-20T14:38:01.693Z,95857.08
2019-04-20T14:40:34.497Z,95856.94
2019-04-20T14:43:06.796Z,95852.80
2019-04-20T14:45:38.956Z,95849.44
2019-04-20T14:48:11.994Z,95852.36
2019-04-20T14:50:45.652Z,95853.97
2019-04-20T14:53:17.719Z,95845.89
2019-04-20T14:55:49.649Z,95847.45
2019-04-20T14:58:41.449Z,95855.56
2019-04-20T15:01:28.185Z,95852.55
2019-04-20T15:04:06.835Z,95846.67
2019-04-20T15:06:36.750Z,95844.05
2019-04-20T15:09:10.625Z,95854.75
2019-04-20T15:11:45.160Z,95852.84
2019-04-20T15:14:16.857Z,95863.18
2019-04-20T15:16:48.759Z,95856.66
2019-04-20T15:19:37.425Z,95859.97
2019-04-20T15:22:29.468Z,95867.69
2019-04-20T15:25:01.221Z,95875.00
2019-04-20T15:27:33.236Z,95873.00
2019-04-20T15:30:06.575Z,95873.84
2019-04-20T15:32:38.967Z,95876.90
2019-04-20T15:35:11.135Z,95890.84
2019-04-20T15:37:43.140Z,95884.61
2019-04-20T15:40:15.199Z,95877.98
2019-04-20T15:42:56.642Z,95887.61
2019-04-20T15:45:21.246Z,95882.89
2019-04-20T15:47:54.187Z,95885.92
2019-04-20T15:50:26.083Z,95886.36
2019-04-20T15:53:00.058Z,95884.27
2019-04-20T15:55:37.439Z,95880.45
2019-04-20T15:58:06.523Z,95878.33
2019-04-20T16:00:38.426Z,95878.39
2019-04-20T16:03:35.056Z,95883.27
2019-04-20T16:06:09.460Z,95884.89
2019-04-20T16:08:44.073Z,95881.87
2019-04-20T16:11:15.632Z,95885.86
2019-04-20T16:13:50.470Z,95879.53
2019-04-20T16:16:21.708Z,95891.19
2019-04-20T16:18:54.911Z,95886.97
2019-04-20T16:21:30.228Z,95887.42
2019-04-20T16:24:06.534Z,95876.73
2019-04-20T16:26:57.813Z,95877.19
2019-04-20T16:29:29.681Z,95885.59
2019-04-20T16:32:02.509Z,95892.00
2019-04-20T16:34:36.664Z,95888.55
2019-04-20T16:37:08.640Z,95886.76
2019-04-20T16:39:40.736Z,95889.80
2019-04-20T16:42:14.240Z,95887.62
2019-04-20T16:44:47.222Z,95883.80
2019-04-20T16:47:19.433Z,95885.34
2019-04-20T16:49:51.052Z,95886.08
2019-04-20T16:52:23.149Z,95882.32
2019-04-20T16:54:55.611Z,95879.58
2019-04-20T16:57:27.888Z,95887.32
2019-04-20T17:00:01.332Z,95887.98
2019-04-20T17:02:36.094Z,95895.39
2019-04-20T17:05:09.209Z,95895.72
2019-04-20T17:07:44.898Z,95896.53
2019-04-20T17:10:20.205Z,95892.56
2019-04-20T17:12:53.672Z,95895.00
2019-04-20T17:15:26.025Z,95892.96
2019-04-20T17:17:58.913Z,95890.17
2019-04-20T17:20:30.718Z,95900.80
2019-04-20T17:23:05.577Z,95896.73
2019-04-20T17:25:35.987Z,95896.98
2019-04-20T17:28:29.417Z,95903.64
2019-04-20T17:31:19.937Z,95904.94
2019-04-20T17:34:20.582Z,95901.68
2019-04-20T17:36:39.782Z,95910.41
2019-04-20T17:39:13.988Z,95911.17
2019-04-20T17:42:03.061Z,95909.95
2019-04-20T17:44:34.127Z,95913.73
2019-04-20T17:47:00.653Z,95914.44
2019-04-20T17:49:34.172Z,95915.66
2019-04-20T17:52:22.313Z,95916.38
2019-04-20T17:54:40.158Z,95916.89
2019-04-20T17:57:12.980Z,95918.73
2019-04-20T17:59:53.271Z,95925.72
2019-04-20T18:02:59.324Z,95931.87
2019-04-20T18:05:38.895Z,95938.10
2019-04-20T18:08:15.435Z,95938.55
2019-04-20T18:10:38.151Z,95946.81
2019-04-20T18:13:09.369Z,95951.30
2019-04-20T18:15:48.880Z,95957.98
2019-04-20T18:18:40.866Z,95960.75
2019-04-20T18:21:24.351Z,95962.61
2019-04-20T18:23:56.402Z,95966.59
2019-04-20T18:26:50.185Z,95970.05
2019-04-20T18:29:23.936Z,95975.35
2019-04-20T18:32:07.335Z,95980.94
2019-04-20T18:35:01.714Z,95973.50
2019-04-20T18:37:32.767Z,95973.31
2019-04-20T18:40:11.111Z,95983.17
2019-04-20T18:42:43.451Z,95978.38
2019-04-20T18:45:30.958Z,95972.48
2019-04-20T18:48:06.547Z,95972.30
2019-04-20T18:50:28.874Z,95977.17
2019-04-20T18:52:54.055Z,95977.62
2019-04-20T18:55:33.265Z,95981.08
2019-04-20T18:58:02.360Z,95981.77
2019-04-20T19:00:40.791Z,95984.29
2019-04-20T19:03:15.512Z,95984.82
2019-04-20T19:05:42.113Z,95987.90
2019-04-20T19:08:15.773Z,95980.55
2019-04-20T19:10:55.585Z,95991.97
2019-04-20T19:13:36.343Z,95995.49
2019-04-20T19:16:25.225Z,95995.77
2019-04-20T19:19:21.257Z,96000.34
2019-04-20T19:21:41.758Z,95996.48
2019-04-20T19:24:16.950Z,95994.36
2019-04-20T19:26:51.560Z,96000.59
2019-04-20T19:29:31.035Z,95996.89
2019-04-20T19:32:15.820Z,95996.02
2019-04-20T19:34:43.251Z,95998.66
2019-04-20T19:37:14.190Z,95996.93
2019-04-20T19:39:49.472Z,96001.19
2019-04-20T19:42:23.173Z,96004.13
2019-04-20T19:44:56.580Z,96006.91
2019-04-20T19:47:41.598Z,96000.45
2019-04-20T19:50:25.206Z,95999.37
2019-04-20T19:52:50.436Z,95998.16
2019-04-20T19:55:16.099Z,96001.16
2019-04-20T19:57:50.801Z,95995.57
2019-04-20T20:00:06.368Z,96000.11
2019-04-20T20:02:41.355Z,95998.47
2019-04-20T20:05:15.342Z,95996.20
2019-04-20T20:07:49.350Z,96003.97
2019-04-20T20:10:20.908Z,95997.52
2019-04-20T20:12:55.991Z,96001.52
2019-04-20T20:15:32.434Z,96006.00
2019-04-20T20:18:15.312Z,95996.57
2019-04-20T20:20:48.727Z,95989.67
2019-04-20T20:23:05.580Z,95993.89
2019-04-20T20:25:42.458Z,95990.25
2019-04-20T20:28:18.842Z,95997.88
2019-04-20T20:30:56.898Z,95996.70
2019-04-20T20:33:37.928Z,96000.45
2019-04-20T20:36:01.995Z,95993.84
2019-04-20T20:38:31.586Z,95999.17
2019-04-20T20:41:10.065Z,95997.47
2019-04-20T20:43:47.455Z,95994.48
2019-04-20T20:46:17.199Z,95994.20
2019-04-20T20:49:03.350Z,95993.06
2019-04-20T20:51:38.748Z,95991.46
2019-04-20T20:53:56.496Z,95989.15
2019-04-20T20:56:27.404Z,95989.15
2019-04-20T20:59:02.967Z,95988.51
2019-04-20T21:01:26.513Z,95991.17
2019-04-20T21:04:00.595Z,95990.24
2019-04-20T21:06:32.836Z,95990.81
2019-04-20T21:09:06.222Z,95992.73
2019-04-20T21:11:40.204Z,95990.77
2019-04-20T21:14:19.959Z,95994.08
2019-04-20T21:16:53.414Z,95992.98
2019-04-20T21:19:33.993Z,95992.20
2019-04-20T21:22:02.161Z,95991.35
2019-04-20T21:24:34.036Z,95997.83
2019-04-20T21:27:11.231Z,95995.91
2019-04-20T21:29:44.385Z,95987.62
2019-04-20T21:32:15.897Z,95987.32
2019-04-20T21:34:51.708Z,95992.14
2019-04-20T21:37:23.319Z,95984.94
2019-04-20T21:39:59.009Z,95995.06
2019-04-20T21:42:28.481Z,95996.19
2019-04-20T21:45:09.467Z,95994.81
2019-04-20T21:47:36.329Z,95986.29
2019-04-20T21:50:27.120Z,95986.27
2019-04-20T21:52:45.125Z,95990.70
2019-04-20T21:55:14.529Z,95992.52
2019-04-20T21:57:51.603Z,95980.36
2019-04-20T22:00:44.594Z,95977.09
2019-04-20T22:03:15.473Z,95972.38
2019-04-20T22:05:48.502Z,95983.67
2019-04-20T22:08:20.264Z,95985.28
2019-04-20T22:10:53.396Z,95985.97
2019-04-20T22:13:31.106Z,95979.80
2019-04-20T22:16:05.200Z,95986.04
2019-04-20T22:18:46.348Z,95982.09
2019-04-20T22:21:16.698Z,95981.95
2019-04-20T22:23:58.968Z,95978.94
2019-04-20T22:26:26.600Z,95978.28
2019-04-20T22:28:46.321Z,95972.28
2019-04-20T22:31:18.408Z,95971.31
2019-04-20T22:33:50.672Z,95966.22
2019-04-20T22:36:26.051Z,95964.20
2019-04-20T22:39:15.652Z,95965.28
2019-04-20T22:42:00.256Z,95966.75
2019-04-20T22:44:30.751Z,95968.73
2019-04-20T22:47:05.526Z,95970.05
2019-04-20T22:49:49.757Z,95966.16
2019-04-20T22:52:26.541Z,95962.77
2019-04-20T22:54:54.748Z,95961.47
2019-04-20T22:57:31.909Z,95967.64
2019-04-20T22:59:56.881Z,95980.08
2019-04-20T23:02:22.958Z,95973.04
2019-04-20T23:04:53.389Z,95971.90
2019-04-20T23:07:26.467Z,95966.04
2019-04-20T23:10:01.577Z,95962.60
2019-04-20T23:12:32.234Z,95958.18
2019-04-20T23:15:05.815Z,95954.91
2019-04-20T23:17:42.152Z,95954.52
2019-04-20T23:20:17.274Z,95952.35
2019-04-20T23:22:47.727Z,95945.95
2019-04-20T23:25:18.088Z,95953.28
2019-04-20T23:27:52.373Z,95954.42
2019-04-20T23:30:28.995Z,95953.86
2019-04-20T23:32:57.901Z,95956.97
2019-04-20T23:35:30.328Z,95948.78
2019-04-20T23:38:11.045Z,95941.39
2019-04-20T23:40:37.451Z,95939.75
2019-04-20T23:43:24.482Z,95939.60
2019-04-20T23:46:29.639Z,95937.95
2019-04-20T23:49:54.380Z,95935.02
2019-04-20T23:52:36.193Z,95937.48
2019-04-20T23:54:53.870Z,95935.03
2019-04-20T23:57:17.875Z,95926.50
2019-04-20T23:59:50.284Z,95930.98
